createdAt,value
2022-11-20T00:01:14.559Z,2.30
2022-11-20T00:03:41.942Z,2.40
2022-11-20T00:06:11.555Z,2.30
2022-11-20T00:08:38.381Z,2.30
2022-11-20T00:11:16.112Z,2.30
2022-11-20T00:13:44.361Z,2.30
2022-11-20T00:16:13.337Z,2.30
2022-11-20T00:18:40.168Z,2.30
2022-11-20T00:21:26.951Z,2.30
2022-11-20T00:23:56.151Z,2.30
2022-11-20T00:26:25.805Z,2.30
2022-11-20T00:28:54.902Z,2.30
2022-11-20T00:31:21.943Z,2.30
2022-11-20T00:33:49.132Z,2.30
2022-11-20T00:36:18.415Z,2.20
2022-11-20T00:38:45.915Z,2.20
2022-11-20T00:41:14.954Z,2.20
2022-11-20T00:43:41.975Z,2.30
2022-11-20T00:46:17.009Z,2.30
2022-11-20T00:48:44.786Z,2.30
2022-11-20T00:51:14.658Z,2.30
2022-11-20T00:53:41.850Z,2.30
2022-11-20T00:56:13.343Z,2.30
2022-11-20T00:58:42.084Z,2.20
2022-11-20T01:01:15.446Z,2.20
2022-11-20T01:03:45.080Z,2.20
2022-11-20T01:06:18.159Z,2.10
2022-11-20T01:08:46.228Z,2.10
2022-11-20T01:11:17.661Z,2.20
2022-11-20T01:13:46.007Z,2.20
2022-11-20T01:16:13.943Z,2.10
2022-11-20T01:18:43.142Z,2.10
2022-11-20T01:21:13.327Z,2.20
2022-11-20T01:23:42.205Z,2.20
2022-11-20T01:26:12.225Z,2.00
2022-11-20T01:28:39.794Z,2.10
2022-11-20T01:31:14.149Z,2.10
2022-11-20T01:33:42.326Z,2.10
2022-11-20T01:36:10.459Z,2.10
2022-11-20T01:38:37.241Z,2.10
2022-11-20T01:41:04.747Z,2.10
2022-11-20T01:43:32.195Z,2.10
2022-11-20T01:46:20.381Z,2.10
2022-11-20T01:49:17.646Z,2.10
2022-11-20T01:52:18.161Z,2.20
2022-11-20T01:54:49.864Z,2.30
2022-11-20T01:57:17.843Z,2.30
2022-11-20T01:59:55.645Z,2.10
2022-11-20T02:02:22.750Z,2.10
2022-11-20T02:04:52.591Z,2.10
2022-11-20T02:07:20.933Z,2.20
2022-11-20T02:09:47.958Z,2.20
2022-11-20T02:12:34.962Z,2.20
2022-11-20T02:15:02.040Z,2.20
2022-11-20T02:17:29.039Z,2.20
2022-11-20T02:19:55.885Z,2.20
2022-11-20T02:22:29.807Z,2.20
2022-11-20T02:24:57.666Z,2.30
2022-11-20T02:27:24.425Z,2.30
2022-11-20T02:29:57.804Z,2.20
2022-11-20T02:32:31.580Z,2.20
2022-11-20T02:34:58.921Z,2.30
2022-11-20T02:37:33.631Z,2.30
2022-11-20T02:40:00.486Z,2.20
2022-11-20T02:42:27.048Z,2.30
2022-11-20T02:44:53.819Z,2.20
2022-11-20T02:47:20.593Z,2.20
2022-11-20T02:49:47.310Z,2.20
2022-11-20T02:52:14.032Z,2.20
2022-11-20T02:54:40.806Z,2.20
2022-11-20T02:57:07.434Z,2.10
2022-11-20T02:59:34.045Z,2.10
2022-11-20T03:02:00.814Z,2.20
2022-11-20T03:04:27.426Z,2.20
2022-11-20T03:06:54.091Z,2.20
2022-11-20T03:09:21.042Z,2.20
2022-11-20T03:11:47.929Z,2.20
2022-11-20T03:14:15.135Z,2.20
2022-11-20T03:16:41.928Z,2.10
2022-11-20T03:19:08.973Z,2.20
2022-11-20T03:21:37.933Z,2.20
2022-11-20T03:24:04.869Z,2.20
2022-11-20T03:26:31.677Z,2.20
2022-11-20T03:29:04.445Z,2.20
2022-11-20T03:31:33.942Z,2.20
2022-11-20T03:34:00.969Z,2.20
2022-11-20T03:36:29.018Z,2.20
2022-11-20T03:38:57.445Z,2.10
2022-11-20T03:41:26.867Z,2.20
2022-11-20T03:43:57.021Z,2.20
2022-11-20T03:46:24.296Z,2.10
2022-11-20T03:48:52.275Z,2.10
2022-11-20T03:51:24.403Z,2.10
2022-11-20T03:53:52.990Z,2.20
2022-11-20T03:56:24.209Z,2.20
2022-11-20T03:58:51.449Z,2.10
2022-11-20T04:01:23.745Z,2.10
2022-11-20T04:03:53.164Z,2.10
2022-11-20T04:06:31.261Z,2.10
2022-11-20T04:08:59.033Z,2.10
2022-11-20T04:11:29.172Z,2.10
2022-11-20T04:14:02.388Z,2.10
2022-11-20T04:16:36.340Z,2.10
2022-11-20T04:19:05.671Z,2.10
2022-11-20T04:21:32.578Z,2.10
2022-11-20T04:23:59.814Z,2.10
2022-11-20T04:26:28.323Z,2.10
2022-11-20T04:28:55.457Z,2.10
2022-11-20T04:31:25.204Z,2.10
2022-11-20T04:33:51.836Z,2.10
2022-11-20T04:36:21.018Z,2.10
2022-11-20T04:38:56.492Z,2.00
2022-11-20T04:41:25.650Z,2.10
2022-11-20T04:43:59.899Z,2.10
2022-11-20T04:46:27.911Z,2.10
2022-11-20T04:48:55.255Z,2.20
2022-11-20T04:51:22.491Z,2.10
2022-11-20T04:53:49.763Z,2.20
2022-11-20T04:56:16.763Z,2.20
2022-11-20T04:58:43.876Z,2.20
2022-11-20T05:01:14.305Z,2.10
2022-11-20T05:03:42.865Z,2.20
2022-11-20T05:06:12.054Z,2.20
2022-11-20T05:08:38.798Z,2.20
2022-11-20T05:11:11.428Z,2.20
2022-11-20T05:13:39.271Z,2.20
2022-11-20T05:16:11.956Z,2.10
2022-11-20T05:18:39.455Z,2.10
2022-11-20T05:21:07.142Z,2.10
2022-11-20T05:23:34.438Z,2.10
2022-11-20T05:26:02.063Z,2.00
2022-11-20T05:28:30.733Z,2.00
2022-11-20T05:31:04.546Z,1.90
2022-11-20T05:33:31.221Z,1.90
2022-11-20T05:36:01.175Z,1.90
2022-11-20T05:38:27.929Z,1.90
2022-11-20T05:40:54.657Z,2.00
2022-11-20T05:43:21.266Z,1.90
2022-11-20T05:45:54.981Z,1.90
2022-11-20T05:48:22.875Z,2.00
2022-11-20T05:50:49.562Z,1.90
2022-11-20T05:53:16.406Z,1.90
2022-11-20T05:55:43.251Z,1.90
2022-11-20T05:58:10.025Z,1.90
2022-11-20T06:00:37.072Z,1.80
2022-11-20T06:03:03.947Z,1.80
2022-11-20T06:05:30.849Z,1.90
2022-11-20T06:07:57.561Z,1.80
2022-11-20T06:10:24.116Z,1.80
2022-11-20T06:12:50.711Z,1.80
2022-11-20T06:15:17.320Z,1.80
2022-11-20T06:17:44.151Z,1.80
2022-11-20T06:20:11.460Z,1.80
2022-11-20T06:22:38.195Z,1.80
2022-11-20T06:25:04.946Z,1.80
2022-11-20T06:27:31.671Z,1.80
2022-11-20T06:29:58.301Z,1.80
2022-11-20T06:32:25.061Z,1.80
2022-11-20T06:34:51.643Z,1.80
2022-11-20T06:37:18.218Z,1.80
2022-11-20T06:39:44.875Z,1.80
2022-11-20T06:42:11.846Z,1.80
2022-11-20T06:44:38.434Z,1.80
2022-11-20T06:47:05.090Z,1.80
2022-11-20T06:49:31.655Z,1.80
2022-11-20T06:51:58.210Z,1.80
2022-11-20T06:54:25.332Z,1.80
2022-11-20T06:56:52.081Z,1.80
2022-11-20T06:59:18.805Z,1.80
2022-11-20T07:01:45.521Z,1.90
2022-11-20T07:04:12.139Z,1.90
2022-11-20T07:06:38.859Z,1.90
2022-11-20T07:09:11.351Z,1.80
2022-11-20T07:11:39.211Z,1.90
2022-11-20T07:14:06.205Z,1.90
2022-11-20T07:16:32.959Z,1.90
2022-11-20T07:18:59.738Z,2.00
2022-11-20T07:21:26.570Z,2.00
2022-11-20T07:23:53.231Z,2.00
2022-11-20T07:26:20.632Z,2.00
2022-11-20T07:28:47.677Z,2.00
2022-11-20T07:31:18.815Z,2.00
2022-11-20T07:33:46.399Z,1.90
2022-11-20T07:36:13.178Z,1.90
2022-11-20T07:38:39.819Z,2.00
2022-11-20T07:41:06.601Z,2.00
2022-11-20T07:43:38.512Z,2.00
2022-11-20T07:46:08.029Z,2.00
2022-11-20T07:48:34.752Z,2.00
2022-11-20T07:51:01.442Z,2.00
2022-11-20T07:53:28.313Z,2.00
2022-11-20T07:55:55.281Z,1.90
2022-11-20T07:58:22.561Z,1.80
2022-11-20T08:00:49.371Z,1.90
2022-11-20T08:03:20.258Z,1.80
2022-11-20T08:05:50.875Z,1.90
2022-11-20T08:08:17.470Z,1.90
2022-11-20T08:10:44.182Z,1.90
2022-11-20T08:13:29.627Z,2.00
2022-11-20T08:15:56.422Z,2.10
2022-11-20T08:18:31.310Z,2.10
2022-11-20T08:20:58.939Z,2.10
2022-11-20T08:23:25.576Z,2.10
2022-11-20T08:25:52.459Z,2.00
2022-11-20T08:28:21.688Z,2.10
2022-11-20T08:30:50.027Z,2.10
2022-11-20T08:33:18.460Z,2.20
2022-11-20T08:35:45.504Z,2.00
2022-11-20T08:38:12.166Z,2.00
2022-11-20T08:40:38.914Z,2.00
2022-11-20T08:43:05.676Z,2.00
2022-11-20T08:45:34.724Z,2.10
2022-11-20T08:48:04.006Z,2.10
2022-11-20T08:50:33.477Z,2.10
2022-11-20T08:53:06.786Z,2.10
2022-11-20T08:55:33.969Z,2.20
2022-11-20T08:58:05.246Z,2.20
2022-11-20T09:00:33.412Z,2.10
2022-11-20T09:03:02.080Z,2.20
2022-11-20T09:05:29.054Z,2.20
2022-11-20T09:07:59.664Z,2.30
2022-11-20T09:10:28.492Z,2.20
2022-11-20T09:12:58.650Z,2.20
2022-11-20T09:15:26.669Z,2.10
2022-11-20T09:17:59.125Z,2.20
2022-11-20T09:20:26.849Z,2.30
2022-11-20T09:22:53.436Z,2.30
2022-11-20T09:25:20.005Z,2.30
2022-11-20T09:27:47.329Z,2.40
2022-11-20T09:30:15.501Z,2.50
2022-11-20T09:32:43.347Z,2.50
2022-11-20T09:35:11.921Z,2.50
2022-11-20T09:37:38.861Z,2.50
2022-11-20T09:40:06.393Z,2.40
2022-11-20T09:43:02.911Z,2.40
2022-11-20T09:45:57.571Z,2.40
2022-11-20T09:48:54.586Z,2.50
2022-11-20T09:51:54.584Z,2.40
2022-11-20T09:54:24.220Z,2.40
2022-11-20T09:57:14.614Z,2.40
2022-11-20T09:59:44.217Z,2.30
2022-11-20T10:02:36.734Z,2.50
2022-11-20T10:05:06.395Z,2.30
2022-11-20T10:08:15.243Z,2.30
2022-11-20T10:11:02.803Z,2.30
2022-11-20T10:13:32.188Z,2.30
2022-11-20T10:16:40.586Z,2.40
2022-11-20T10:19:29.005Z,2.40
2022-11-20T10:22:23.950Z,2.40
2022-11-20T10:24:56.738Z,2.60
2022-11-20T10:27:35.433Z,2.70
2022-11-20T10:30:08.939Z,2.80
2022-11-20T10:32:45.027Z,2.70
2022-11-20T10:35:44.375Z,2.60
2022-11-20T10:38:20.040Z,2.60
2022-11-20T10:41:25.565Z,2.60
2022-11-20T10:44:38.864Z,2.80
2022-11-20T10:47:11.162Z,2.90
2022-11-20T10:49:37.920Z,2.90
2022-11-20T10:52:22.249Z,2.80
2022-11-20T10:55:07.128Z,3.00
2022-11-20T10:58:00.364Z,3.10
2022-11-20T11:00:27.184Z,3.10
2022-11-20T11:02:55.980Z,3.10
2022-11-20T11:05:37.419Z,3.10
2022-11-20T11:08:06.808Z,3.10
2022-11-20T11:10:48.852Z,3.10
2022-11-20T11:13:27.362Z,3.10
2022-11-20T11:15:54.815Z,3.20
2022-11-20T11:18:30.967Z,3.10
2022-11-20T11:21:00.180Z,3.00
2022-11-20T11:23:41.940Z,3.10
2022-11-20T11:26:20.584Z,3.10
2022-11-20T11:29:01.341Z,3.20
2022-11-20T11:31:33.582Z,3.20
2022-11-20T11:34:17.606Z,3.30
2022-11-20T11:36:57.197Z,3.50
2022-11-20T11:39:25.321Z,3.60
2022-11-20T11:41:52.760Z,3.60
2022-11-20T11:44:47.176Z,3.60
2022-11-20T11:47:33.314Z,3.60
2022-11-20T11:50:30.422Z,3.60
2022-11-20T11:53:07.158Z,3.60
2022-11-20T11:55:48.938Z,3.60
2022-11-20T11:58:42.961Z,3.70
2022-11-20T12:01:29.229Z,3.70
2022-11-20T12:04:05.740Z,3.70
2022-11-20T12:06:37.007Z,3.70
2022-11-20T12:09:08.979Z,3.50
2022-11-20T12:11:52.458Z,3.30
2022-11-20T12:14:33.768Z,3.30
2022-11-20T12:17:02.114Z,3.40
2022-11-20T12:19:34.183Z,3.40
2022-11-20T12:22:13.859Z,3.60
2022-11-20T12:25:18.248Z,3.80
2022-11-20T12:27:54.250Z,3.90
2022-11-20T12:30:22.381Z,3.90
2022-11-20T12:33:35.657Z,4.00
2022-11-20T12:36:11.140Z,4.10
2022-11-20T12:38:44.959Z,4.10
2022-11-20T12:41:49.361Z,4.10
2022-11-20T12:45:02.811Z,4.20
2022-11-20T12:48:07.239Z,4.40
2022-11-20T12:51:13.983Z,4.40
2022-11-20T12:54:09.516Z,4.30
2022-11-20T12:56:48.159Z,4.20
2022-11-20T12:59:24.982Z,4.00
2022-11-20T13:02:20.439Z,4.10
2022-11-20T13:05:12.408Z,4.10
2022-11-20T13:07:39.889Z,3.90
2022-11-20T13:10:36.014Z,3.90
2022-11-20T13:13:13.745Z,3.90
2022-11-20T13:15:53.573Z,4.00
2022-11-20T13:18:21.131Z,4.00
2022-11-20T13:20:49.233Z,4.10
2022-11-20T13:23:30.114Z,4.10
2022-11-20T13:26:18.661Z,4.10
2022-11-20T13:28:47.068Z,4.20
2022-11-20T13:31:35.050Z,4.30
2022-11-20T13:34:06.562Z,4.30
2022-11-20T13:36:33.531Z,4.30
2022-11-20T13:39:00.552Z,4.30
2022-11-20T13:41:34.992Z,4.40
2022-11-20T13:44:24.625Z,4.40
2022-11-20T13:46:51.373Z,4.40
2022-11-20T13:49:27.889Z,4.30
2022-11-20T13:52:32.180Z,4.40
2022-11-20T13:55:18.978Z,4.40
2022-11-20T13:57:51.094Z,4.40
2022-11-20T14:00:22.850Z,4.40
2022-11-20T14:03:13.163Z,4.40
2022-11-20T14:05:50.462Z,4.40
2022-11-20T14:08:37.070Z,4.50
2022-11-20T14:11:15.067Z,4.40
2022-11-20T14:14:01.361Z,4.30
2022-11-20T14:16:30.981Z,4.40
2022-11-20T14:19:15.876Z,4.30
2022-11-20T14:21:42.596Z,4.30
2022-11-20T14:24:13.049Z,4.30
2022-11-20T14:26:46.161Z,4.30
2022-11-20T14:29:23.144Z,4.30
2022-11-20T14:31:55.836Z,4.30
2022-11-20T14:34:25.934Z,4.20
2022-11-20T14:37:00.512Z,4.10
2022-11-20T14:39:38.824Z,4.10
2022-11-20T14:42:17.207Z,4.10
2022-11-20T14:44:44.884Z,4.10
2022-11-20T14:47:14.772Z,4.20
2022-11-20T14:49:42.719Z,4.30
2022-11-20T14:52:19.064Z,4.30
2022-11-20T14:54:54.016Z,4.30
2022-11-20T14:57:32.196Z,4.20
2022-11-20T15:00:14.154Z,4.20
2022-11-20T15:02:45.421Z,4.20
2022-11-20T15:05:12.764Z,4.30
2022-11-20T15:07:47.825Z,4.30
2022-11-20T15:10:21.047Z,4.30
2022-11-20T15:12:53.750Z,4.30
2022-11-20T15:15:47.015Z,4.30
2022-11-20T15:18:22.222Z,4.20
2022-11-20T15:20:49.418Z,4.20
2022-11-20T15:23:19.476Z,4.30
2022-11-20T15:25:46.827Z,4.30
2022-11-20T15:28:29.668Z,4.20
2022-11-20T15:30:57.370Z,4.10
2022-11-20T15:33:24.243Z,4.00
2022-11-20T15:35:51.161Z,4.00
2022-11-20T15:38:17.883Z,3.90
2022-11-20T15:40:44.669Z,4.00
2022-11-20T15:43:13.721Z,4.00
2022-11-20T15:45:51.716Z,4.00
2022-11-20T15:48:25.742Z,4.00
2022-11-20T15:51:31.864Z,3.90
2022-11-20T15:53:59.002Z,3.80
2022-11-20T15:56:26.508Z,3.80
2022-11-20T15:58:54.012Z,3.80
2022-11-20T16:01:22.703Z,3.80
2022-11-20T16:03:50.368Z,3.80
2022-11-20T16:06:17.384Z,3.80
2022-11-20T16:08:45.147Z,3.80
2022-11-20T16:11:14.383Z,3.80
2022-11-20T16:14:13.723Z,3.90
2022-11-20T16:16:41.857Z,3.80
2022-11-20T16:19:12.916Z,3.90
2022-11-20T16:21:42.485Z,3.90
2022-11-20T16:24:12.631Z,4.00
2022-11-20T16:26:39.430Z,4.10
2022-11-20T16:29:07.619Z,4.10
2022-11-20T16:31:34.640Z,4.10
2022-11-20T16:34:10.180Z,4.10
2022-11-20T16:36:41.945Z,4.10
2022-11-20T16:39:08.819Z,4.20
2022-11-20T16:41:35.930Z,4.20
2022-11-20T16:44:07.529Z,4.30
2022-11-20T16:46:34.746Z,4.30
2022-11-20T16:49:04.608Z,4.30
2022-11-20T16:51:34.432Z,4.20
2022-11-20T16:54:06.594Z,4.20
2022-11-20T16:56:33.608Z,4.20
2022-11-20T16:59:01.857Z,4.10
2022-11-20T17:01:29.760Z,4.10
2022-11-20T17:04:03.848Z,4.10
2022-11-20T17:06:40.261Z,4.10
2022-11-20T17:09:09.605Z,4.10
2022-11-20T17:11:36.773Z,4.00
2022-11-20T17:14:04.231Z,4.00
2022-11-20T17:16:31.666Z,3.80
2022-11-20T17:19:02.854Z,3.80
2022-11-20T17:21:30.603Z,3.80
2022-11-20T17:24:01.198Z,3.90
2022-11-20T17:26:28.665Z,3.90
2022-11-20T17:28:59.759Z,4.00
2022-11-20T17:31:28.393Z,3.90
2022-11-20T17:33:55.217Z,3.90
2022-11-20T17:36:22.597Z,3.90
2022-11-20T17:38:49.554Z,3.90
2022-11-20T17:41:19.339Z,3.90
2022-11-20T17:43:46.466Z,3.80
2022-11-20T17:46:19.130Z,3.80
2022-11-20T17:48:47.100Z,3.70
2022-11-20T17:51:34.919Z,3.70
2022-11-20T17:54:07.442Z,3.70
2022-11-20T17:56:54.516Z,3.80
2022-11-20T17:59:21.523Z,3.80
2022-11-20T18:01:48.491Z,3.80
2022-11-20T18:04:15.337Z,3.80
2022-11-20T18:06:42.471Z,3.80
2022-11-20T18:09:09.549Z,3.70
2022-11-20T18:11:38.792Z,3.60
2022-11-20T18:14:26.511Z,3.50
2022-11-20T18:16:58.959Z,3.40
2022-11-20T18:19:32.139Z,3.40
2022-11-20T18:22:01.252Z,3.40
2022-11-20T18:24:28.272Z,3.50
2022-11-20T18:26:55.022Z,3.50
2022-11-20T18:29:22.276Z,3.50
2022-11-20T18:31:49.559Z,3.50
2022-11-20T18:34:17.586Z,3.50
2022-11-20T18:36:45.174Z,3.60
2022-11-20T18:39:13.263Z,3.60
2022-11-20T18:41:59.289Z,3.60
2022-11-20T18:44:47.353Z,3.60
2022-11-20T18:47:37.643Z,3.60
2022-11-20T18:50:05.926Z,3.60
2022-11-20T18:52:44.785Z,3.50
2022-11-20T18:55:12.703Z,3.50
2022-11-20T18:57:39.704Z,3.50
2022-11-20T19:00:09.674Z,3.50
2022-11-20T19:02:41.644Z,3.60
2022-11-20T19:05:14.518Z,3.60
2022-11-20T19:07:41.767Z,3.60
2022-11-20T19:10:08.841Z,3.70
2022-11-20T19:12:37.289Z,3.70
2022-11-20T19:15:04.718Z,3.70
2022-11-20T19:17:33.386Z,3.70
2022-11-20T19:20:00.228Z,3.70
2022-11-20T19:22:27.141Z,3.70
2022-11-20T19:24:53.767Z,3.60
2022-11-20T19:27:20.674Z,3.60
2022-11-20T19:29:47.416Z,3.70
2022-11-20T19:32:16.477Z,3.70
2022-11-20T19:34:43.745Z,3.70
2022-11-20T19:37:10.427Z,3.60
2022-11-20T19:39:37.658Z,3.60
2022-11-20T19:42:04.471Z,3.60
2022-11-20T19:44:33.228Z,3.60
2022-11-20T19:47:00.810Z,3.60
2022-11-20T19:49:27.614Z,3.60
2022-11-20T19:51:54.658Z,3.60
2022-11-20T19:54:21.499Z,3.50
2022-11-20T19:56:49.638Z,3.40
2022-11-20T19:59:16.912Z,3.40
2022-11-20T20:01:43.891Z,3.40
2022-11-20T20:04:10.744Z,3.40
2022-11-20T20:06:41.730Z,3.40
2022-11-20T20:09:10.980Z,3.40
2022-11-20T20:11:38.333Z,3.30
2022-11-20T20:14:10.391Z,3.20
2022-11-20T20:16:37.405Z,3.20
2022-11-20T20:19:05.389Z,3.20
2022-11-20T20:21:34.299Z,3.20
2022-11-20T20:24:01.920Z,3.20
2022-11-20T20:26:31.396Z,3.10
2022-11-20T20:28:59.646Z,3.00
2022-11-20T20:31:29.932Z,2.90
2022-11-20T20:33:57.065Z,2.70
2022-11-20T20:36:24.713Z,2.70
2022-11-20T20:38:56.260Z,2.70
2022-11-20T20:41:25.078Z,2.80
2022-11-20T20:44:11.730Z,2.80
2022-11-20T20:46:39.296Z,2.70
2022-11-20T20:49:07.402Z,2.70
2022-11-20T20:51:34.115Z,2.60
2022-11-20T20:54:00.787Z,2.50
2022-11-20T20:56:27.413Z,2.50
2022-11-20T20:58:54.186Z,2.50
2022-11-20T21:01:21.361Z,2.50
2022-11-20T21:03:48.253Z,2.50
2022-11-20T21:06:15.235Z,2.50
2022-11-20T21:08:44.261Z,2.50
2022-11-20T21:11:14.042Z,2.50
2022-11-20T21:13:42.975Z,2.50
2022-11-20T21:16:11.128Z,2.40
2022-11-20T21:18:38.215Z,2.40
2022-11-20T21:21:25.623Z,2.40
2022-11-20T21:23:53.662Z,2.30
2022-11-20T21:26:21.132Z,2.30
2022-11-20T21:28:48.408Z,2.30
2022-11-20T21:31:18.537Z,2.30
2022-11-20T21:33:47.116Z,2.20
2022-11-20T21:36:16.742Z,2.20
2022-11-20T21:38:44.393Z,2.20
2022-11-20T21:41:12.639Z,2.10
2022-11-20T21:43:39.770Z,2.00
2022-11-20T21:46:08.760Z,1.90
2022-11-20T21:48:39.154Z,1.90
2022-11-20T21:51:10.512Z,1.90
2022-11-20T21:53:37.591Z,1.90
2022-11-20T21:56:06.446Z,1.90
2022-11-20T21:58:34.683Z,1.90
2022-11-20T22:01:13.901Z,1.90
2022-11-20T22:03:41.003Z,1.80
2022-11-20T22:06:09.462Z,1.70
2022-11-20T22:08:37.805Z,1.60
2022-11-20T22:11:07.070Z,1.50
2022-11-20T22:13:52.514Z,1.50
2022-11-20T22:16:19.312Z,1.50
2022-11-20T22:18:51.330Z,1.40
2022-11-20T22:21:20.158Z,1.50
2022-11-20T22:23:46.941Z,1.40
2022-11-20T22:26:19.291Z,1.40
2022-11-20T22:28:54.045Z,1.40
2022-11-20T22:31:24.054Z,1.40
2022-11-20T22:33:51.064Z,1.40
2022-11-20T22:36:23.539Z,1.40
2022-11-20T22:38:50.468Z,1.40
2022-11-20T22:41:20.214Z,1.30
2022-11-20T22:43:47.391Z,1.30
2022-11-20T22:46:20.571Z,1.30
2022-11-20T22:49:02.365Z,1.30
2022-11-20T22:51:33.091Z,1.30
2022-11-20T22:54:01.102Z,1.40
2022-11-20T22:56:27.735Z,1.30
2022-11-20T22:58:55.101Z,1.30
2022-11-20T23:01:26.341Z,1.30
2022-11-20T23:03:58.812Z,1.30
2022-11-20T23:06:26.233Z,1.20
2022-11-20T23:08:53.070Z,1.10
2022-11-20T23:11:25.156Z,0.90
2022-11-20T23:13:58.210Z,0.80
2022-11-20T23:16:27.070Z,0.90
2022-11-20T23:18:55.826Z,0.90
2022-11-20T23:21:23.305Z,0.90
2022-11-20T23:23:52.093Z,1.00
2022-11-20T23:26:20.587Z,1.00
2022-11-20T23:28:47.392Z,1.00
2022-11-20T23:31:16.181Z,1.00
2022-11-20T23:33:45.329Z,1.00
2022-11-20T23:36:12.818Z,1.00
2022-11-20T23:38:39.770Z,1.00
2022-11-20T23:41:06.795Z,1.00
2022-11-20T23:43:33.566Z,1.00
2022-11-20T23:46:01.690Z,1.00
2022-11-20T23:48:36.740Z,1.00
2022-11-20T23:51:04.370Z,0.80
2022-11-20T23:53:31.520Z,0.70
2022-11-20T23:56:01.980Z,0.50
2022-11-20T23:58:35.106Z,0.50
